sensor_id;sensor_type;location;lat;lon;timestamp;P1;durP1;ratioP1;P2;durP2;ratioP2
22248;SDS011;67538;52.180;5.646;2024-02-28T00:00:29;125.13;;;35.33;;
22248;SDS011;67538;52.180;5.646;2024-02-28T00:02:56;133.83;;;35.67;;
22248;SDS011;67538;52.180;5.646;2024-02-28T00:05:23;127.10;;;36.57;;
22248;SDS011;67538;52.180;5.646;2024-02-28T00:07:52;132.17;;;36.27;;
22248;SDS011;67538;52.180;5.646;2024-02-28T00:10:19;129.40;;;36.13;;
22248;SDS011;67538;52.180;5.646;2024-02-28T00:12:46;123.57;;;34.20;;
22248;SDS011;67538;52.180;5.646;2024-02-28T00:15:13;124.33;;;34.47;;
22248;SDS011;67538;52.180;5.646;2024-02-28T00:17:40;125.80;;;35.47;;
22248;SDS011;67538;52.180;5.646;2024-02-28T00:20:08;128.10;;;35.17;;
22248;SDS011;67538;52.180;5.646;2024-02-28T00:22:36;131.20;;;36.13;;
22248;SDS011;67538;52.180;5.646;2024-02-28T00:25:05;124.60;;;33.57;;
22248;SDS011;67538;52.180;5.646;2024-02-28T00:27:33;120.33;;;35.00;;
22248;SDS011;67538;52.180;5.646;2024-02-28T00:30:00;125.57;;;35.40;;
22248;SDS011;67538;52.180;5.646;2024-02-28T00:32:30;129.00;;;36.17;;
22248;SDS011;67538;52.180;5.646;2024-02-28T00:34:57;128.47;;;37.60;;
22248;SDS011;67538;52.180;5.646;2024-02-28T00:37:24;117.77;;;35.83;;
22248;SDS011;67538;52.180;5.646;2024-02-28T00:39:50;122.93;;;35.17;;
22248;SDS011;67538;52.180;5.646;2024-02-28T00:42:19;130.20;;;34.77;;
22248;SDS011;67538;52.180;5.646;2024-02-28T00:44:46;121.40;;;36.87;;
22248;SDS011;67538;52.180;5.646;2024-02-28T00:47:13;130.10;;;35.40;;
22248;SDS011;67538;52.180;5.646;2024-02-28T00:49:40;125.17;;;35.80;;
22248;SDS011;67538;52.180;5.646;2024-02-28T00:52:07;136.73;;;38.33;;
22248;SDS011;67538;52.180;5.646;2024-02-28T00:54:34;128.43;;;38.07;;
22248;SDS011;67538;52.180;5.646;2024-02-28T00:57:01;125.40;;;36.20;;
22248;SDS011;67538;52.180;5.646;2024-02-28T00:59:29;133.63;;;38.17;;
22248;SDS011;67538;52.180;5.646;2024-02-28T01:01:56;137.47;;;38.73;;
22248;SDS011;67538;52.180;5.646;2024-02-28T01:04:23;149.37;;;39.03;;
22248;SDS011;67538;52.180;5.646;2024-02-28T01:06:50;149.87;;;38.27;;
22248;SDS011;67538;52.180;5.646;2024-02-28T01:09:17;139.97;;;35.97;;
22248;SDS011;67538;52.180;5.646;2024-02-28T01:11:45;144.43;;;37.73;;
22248;SDS011;67538;52.180;5.646;2024-02-28T01:14:11;157.13;;;38.50;;
22248;SDS011;67538;52.180;5.646;2024-02-28T01:16:40;133.33;;;37.23;;
22248;SDS011;67538;52.180;5.646;2024-02-28T01:19:07;148.03;;;38.40;;
22248;SDS011;67538;52.180;5.646;2024-02-28T01:21:34;153.50;;;37.40;;
22248;SDS011;67538;52.180;5.646;2024-02-28T01:24:01;147.27;;;39.13;;
22248;SDS011;67538;52.180;5.646;2024-02-28T01:26:28;163.30;;;37.90;;
22248;SDS011;67538;52.180;5.646;2024-02-28T01:28:55;259.50;;;38.60;;
22248;SDS011;67538;52.180;5.646;2024-02-28T01:31:22;249.83;;;38.87;;
22248;SDS011;67538;52.180;5.646;2024-02-28T01:33:50;317.00;;;36.73;;
22248;SDS011;67538;52.180;5.646;2024-02-28T01:36:17;390.97;;;36.00;;
22248;SDS011;67538;52.180;5.646;2024-02-28T01:38:44;521.63;;;37.53;;
22248;SDS011;67538;52.180;5.646;2024-02-28T01:41:11;475.07;;;36.07;;
22248;SDS011;67538;52.180;5.646;2024-02-28T01:43:38;583.83;;;39.13;;
22248;SDS011;67538;52.180;5.646;2024-02-28T01:46:06;426.40;;;34.13;;
22248;SDS011;67538;52.180;5.646;2024-02-28T01:48:53;431.57;;;33.17;;
22248;SDS011;67538;52.180;5.646;2024-02-28T01:51:20;547.17;;;38.20;;
22248;SDS011;67538;52.180;5.646;2024-02-28T01:53:49;521.03;;;35.00;;
22248;SDS011;67538;52.180;5.646;2024-02-28T01:56:19;373.17;;;31.17;;
22248;SDS011;67538;52.180;5.646;2024-02-28T01:58:47;505.97;;;34.87;;
22248;SDS011;67538;52.180;5.646;2024-02-28T02:01:16;445.30;;;32.20;;
22248;SDS011;67538;52.180;5.646;2024-02-28T02:03:43;287.23;;;31.40;;
22248;SDS011;67538;52.180;5.646;2024-02-28T02:06:12;437.73;;;33.33;;
22248;SDS011;67538;52.180;5.646;2024-02-28T02:08:39;428.03;;;33.97;;
22248;SDS011;67538;52.180;5.646;2024-02-28T02:11:06;454.27;;;36.60;;
22248;SDS011;67538;52.180;5.646;2024-02-28T02:13:34;382.00;;;33.00;;
22248;SDS011;67538;52.180;5.646;2024-02-28T02:16:01;381.70;;;32.63;;
22248;SDS011;67538;52.180;5.646;2024-02-28T02:18:28;416.97;;;32.47;;
22248;SDS011;67538;52.180;5.646;2024-02-28T02:20:57;303.60;;;31.37;;
22248;SDS011;67538;52.180;5.646;2024-02-28T02:23:30;331.20;;;32.00;;
22248;SDS011;67538;52.180;5.646;2024-02-28T02:25:57;278.27;;;29.80;;
22248;SDS011;67538;52.180;5.646;2024-02-28T02:28:24;358.07;;;32.17;;
22248;SDS011;67538;52.180;5.646;2024-02-28T02:30:51;360.73;;;30.70;;
22248;SDS011;67538;52.180;5.646;2024-02-28T02:33:18;295.77;;;31.03;;
22248;SDS011;67538;52.180;5.646;2024-02-28T02:35:45;316.03;;;31.53;;
22248;SDS011;67538;52.180;5.646;2024-02-28T02:38:12;294.70;;;31.97;;
22248;SDS011;67538;52.180;5.646;2024-02-28T02:40:40;303.67;;;29.53;;
22248;SDS011;67538;52.180;5.646;2024-02-28T02:43:07;318.03;;;31.23;;
22248;SDS011;67538;52.180;5.646;2024-02-28T02:45:34;244.17;;;31.30;;
22248;SDS011;67538;52.180;5.646;2024-02-28T02:48:01;236.00;;;29.70;;
22248;SDS011;67538;52.180;5.646;2024-02-28T02:50:29;202.87;;;29.93;;
22248;SDS011;67538;52.180;5.646;2024-02-28T02:52:56;282.03;;;30.67;;
22248;SDS011;67538;52.180;5.646;2024-02-28T02:55:23;158.40;;;31.37;;
22248;SDS011;67538;52.180;5.646;2024-02-28T02:57:51;376.77;;;32.27;;
22248;SDS011;67538;52.180;5.646;2024-02-28T03:00:18;204.70;;;30.07;;
22248;SDS011;67538;52.180;5.646;2024-02-28T03:02:45;210.93;;;30.57;;
22248;SDS011;67538;52.180;5.646;2024-02-28T03:05:12;140.10;;;28.50;;
22248;SDS011;67538;52.180;5.646;2024-02-28T03:07:40;175.60;;;28.97;;
22248;SDS011;67538;52.180;5.646;2024-02-28T03:10:07;267.23;;;31.07;;
22248;SDS011;67538;52.180;5.646;2024-02-28T03:12:35;250.07;;;30.60;;
22248;SDS011;67538;52.180;5.646;2024-02-28T03:15:04;295.03;;;31.10;;
22248;SDS011;67538;52.180;5.646;2024-02-28T03:17:32;323.87;;;32.27;;
22248;SDS011;67538;52.180;5.646;2024-02-28T03:19:59;306.60;;;31.60;;
22248;SDS011;67538;52.180;5.646;2024-02-28T03:22:26;226.93;;;31.67;;
22248;SDS011;67538;52.180;5.646;2024-02-28T03:24:53;296.67;;;32.33;;
22248;SDS011;67538;52.180;5.646;2024-02-28T03:27:20;189.07;;;29.97;;
22248;SDS011;67538;52.180;5.646;2024-02-28T03:29:47;128.57;;;29.93;;
22248;SDS011;67538;52.180;5.646;2024-02-28T03:32:16;204.70;;;32.10;;
22248;SDS011;67538;52.180;5.646;2024-02-28T03:34:43;158.30;;;30.97;;
22248;SDS011;67538;52.180;5.646;2024-02-28T03:37:10;155.77;;;30.13;;
22248;SDS011;67538;52.180;5.646;2024-02-28T03:39:37;145.27;;;30.23;;
22248;SDS011;67538;52.180;5.646;2024-02-28T03:42:04;141.77;;;31.63;;
22248;SDS011;67538;52.180;5.646;2024-02-28T03:44:31;147.90;;;31.13;;
22248;SDS011;67538;52.180;5.646;2024-02-28T03:46:58;114.57;;;31.20;;
22248;SDS011;67538;52.180;5.646;2024-02-28T03:49:26;172.90;;;32.70;;
22248;SDS011;67538;52.180;5.646;2024-02-28T03:51:53;128.17;;;31.43;;
22248;SDS011;67538;52.180;5.646;2024-02-28T03:54:21;97.83;;;31.07;;
22248;SDS011;67538;52.180;5.646;2024-02-28T03:56:48;118.90;;;31.80;;
22248;SDS011;67538;52.180;5.646;2024-02-28T03:59:15;83.87;;;29.97;;
22248;SDS011;67538;52.180;5.646;2024-02-28T04:01:42;91.37;;;30.53;;
22248;SDS011;67538;52.180;5.646;2024-02-28T04:04:09;110.13;;;33.03;;
22248;SDS011;67538;52.180;5.646;2024-02-28T04:06:38;97.47;;;31.33;;
22248;SDS011;67538;52.180;5.646;2024-02-28T04:09:05;86.20;;;31.77;;
22248;SDS011;67538;52.180;5.646;2024-02-28T04:11:32;92.37;;;31.83;;
22248;SDS011;67538;52.180;5.646;2024-02-28T04:14:00;91.27;;;32.30;;
22248;SDS011;67538;52.180;5.646;2024-02-28T04:16:27;89.13;;;32.53;;
22248;SDS011;67538;52.180;5.646;2024-02-28T04:18:54;101.07;;;31.90;;
22248;SDS011;67538;52.180;5.646;2024-02-28T04:21:21;101.27;;;33.53;;
22248;SDS011;67538;52.180;5.646;2024-02-28T04:23:50;92.70;;;32.23;;
22248;SDS011;67538;52.180;5.646;2024-02-28T04:26:17;92.07;;;32.00;;
22248;SDS011;67538;52.180;5.646;2024-02-28T04:28:44;98.13;;;33.27;;
22248;SDS011;67538;52.180;5.646;2024-02-28T04:31:11;96.50;;;34.33;;
22248;SDS011;67538;52.180;5.646;2024-02-28T04:33:38;87.73;;;32.23;;
22248;SDS011;67538;52.180;5.646;2024-02-28T04:36:05;88.43;;;32.23;;
22248;SDS011;67538;52.180;5.646;2024-02-28T04:38:32;90.03;;;32.67;;
22248;SDS011;67538;52.180;5.646;2024-02-28T04:41:00;94.90;;;33.73;;
22248;SDS011;67538;52.180;5.646;2024-02-28T04:43:28;99.13;;;33.13;;
22248;SDS011;67538;52.180;5.646;2024-02-28T04:45:55;95.97;;;32.70;;
22248;SDS011;67538;52.180;5.646;2024-02-28T04:48:22;96.07;;;33.60;;
22248;SDS011;67538;52.180;5.646;2024-02-28T04:50:49;94.57;;;33.73;;
22248;SDS011;67538;52.180;5.646;2024-02-28T04:53:16;90.73;;;32.27;;
22248;SDS011;67538;52.180;5.646;2024-02-28T04:55:43;94.97;;;33.53;;
22248;SDS011;67538;52.180;5.646;2024-02-28T04:58:11;98.90;;;34.33;;
22248;SDS011;67538;52.180;5.646;2024-02-28T05:00:39;89.20;;;32.93;;
22248;SDS011;67538;52.180;5.646;2024-02-28T05:03:05;93.43;;;34.37;;
22248;SDS011;67538;52.180;5.646;2024-02-28T05:05:32;84.97;;;32.13;;
22248;SDS011;67538;52.180;5.646;2024-02-28T05:07:59;83.17;;;33.30;;
22248;SDS011;67538;52.180;5.646;2024-02-28T05:10:26;84.00;;;33.93;;
22248;SDS011;67538;52.180;5.646;2024-02-28T05:12:53;93.17;;;34.07;;
22248;SDS011;67538;52.180;5.646;2024-02-28T05:15:22;85.80;;;34.03;;
22248;SDS011;67538;52.180;5.646;2024-02-28T05:17:50;85.30;;;32.60;;
22248;SDS011;67538;52.180;5.646;2024-02-28T05:20:17;85.03;;;33.03;;
22248;SDS011;67538;52.180;5.646;2024-02-28T05:22:44;96.40;;;33.90;;
22248;SDS011;67538;52.180;5.646;2024-02-28T05:25:11;94.83;;;33.87;;
22248;SDS011;67538;52.180;5.646;2024-02-28T05:27:38;93.33;;;34.07;;
22248;SDS011;67538;52.180;5.646;2024-02-28T05:30:05;94.23;;;33.77;;
22248;SDS011;67538;52.180;5.646;2024-02-28T05:32:34;96.53;;;33.77;;
22248;SDS011;67538;52.180;5.646;2024-02-28T05:35:01;89.50;;;34.60;;
22248;SDS011;67538;52.180;5.646;2024-02-28T05:37:28;92.97;;;33.83;;
22248;SDS011;67538;52.180;5.646;2024-02-28T05:39:55;83.43;;;33.27;;
22248;SDS011;67538;52.180;5.646;2024-02-28T05:42:23;89.43;;;33.90;;
22248;SDS011;67538;52.180;5.646;2024-02-28T05:44:50;88.67;;;35.53;;
22248;SDS011;67538;52.180;5.646;2024-02-28T05:47:17;83.97;;;34.53;;
22248;SDS011;67538;52.180;5.646;2024-02-28T05:49:46;86.30;;;34.37;;
22248;SDS011;67538;52.180;5.646;2024-02-28T05:52:13;88.23;;;35.67;;
22248;SDS011;67538;52.180;5.646;2024-02-28T05:54:40;80.67;;;33.53;;
22248;SDS011;67538;52.180;5.646;2024-02-28T05:57:07;80.47;;;34.90;;
22248;SDS011;67538;52.180;5.646;2024-02-28T05:59:34;83.63;;;33.97;;
22248;SDS011;67538;52.180;5.646;2024-02-28T06:02:01;75.77;;;32.83;;
22248;SDS011;67538;52.180;5.646;2024-02-28T06:04:29;79.83;;;34.40;;
22248;SDS011;67538;52.180;5.646;2024-02-28T06:06:57;80.63;;;34.07;;
22248;SDS011;67538;52.180;5.646;2024-02-28T06:09:25;77.70;;;33.37;;
22248;SDS011;67538;52.180;5.646;2024-02-28T06:11:52;82.87;;;33.30;;
22248;SDS011;67538;52.180;5.646;2024-02-28T06:14:19;82.70;;;34.80;;
22248;SDS011;67538;52.180;5.646;2024-02-28T06:16:46;81.73;;;34.17;;
22248;SDS011;67538;52.180;5.646;2024-02-28T06:19:13;76.90;;;33.67;;
22248;SDS011;67538;52.180;5.646;2024-02-28T06:21:41;76.87;;;34.97;;
22248;SDS011;67538;52.180;5.646;2024-02-28T06:24:09;80.30;;;35.13;;
22248;SDS011;67538;52.180;5.646;2024-02-28T06:26:36;84.33;;;36.27;;
22248;SDS011;67538;52.180;5.646;2024-02-28T06:29:03;82.17;;;34.77;;
22248;SDS011;67538;52.180;5.646;2024-02-28T06:31:31;84.67;;;35.73;;
22248;SDS011;67538;52.180;5.646;2024-02-28T06:33:58;78.30;;;34.87;;
22248;SDS011;67538;52.180;5.646;2024-02-28T06:36:27;82.43;;;36.23;;
22248;SDS011;67538;52.180;5.646;2024-02-28T06:38:55;85.33;;;35.23;;
22248;SDS011;67538;52.180;5.646;2024-02-28T06:41:23;81.73;;;36.67;;
22248;SDS011;67538;52.180;5.646;2024-02-28T06:43:50;101.37;;;41.93;;
22248;SDS011;67538;52.180;5.646;2024-02-28T06:46:17;102.97;;;42.77;;
22248;SDS011;67538;52.180;5.646;2024-02-28T06:48:44;103.63;;;43.27;;
22248;SDS011;67538;52.180;5.646;2024-02-28T06:51:11;104.10;;;42.83;;
22248;SDS011;67538;52.180;5.646;2024-02-28T06:53:38;91.80;;;40.40;;
22248;SDS011;67538;52.180;5.646;2024-02-28T06:56:05;89.73;;;39.37;;
22248;SDS011;67538;52.180;5.646;2024-02-28T06:58:34;85.47;;;36.83;;
22248;SDS011;67538;52.180;5.646;2024-02-28T07:01:01;82.77;;;37.90;;
22248;SDS011;67538;52.180;5.646;2024-02-28T07:03:29;90.27;;;38.20;;
22248;SDS011;67538;52.180;5.646;2024-02-28T07:05:56;90.47;;;39.60;;
22248;SDS011;67538;52.180;5.646;2024-02-28T07:08:23;90.90;;;38.70;;
22248;SDS011;67538;52.180;5.646;2024-02-28T07:10:50;78.70;;;37.83;;
22248;SDS011;67538;52.180;5.646;2024-02-28T07:13:18;88.70;;;38.87;;
22248;SDS011;67538;52.180;5.646;2024-02-28T07:15:47;87.10;;;39.30;;
22248;SDS011;67538;52.180;5.646;2024-02-28T07:18:15;87.97;;;40.07;;
22248;SDS011;67538;52.180;5.646;2024-02-28T07:20:42;92.90;;;41.50;;
22248;SDS011;67538;52.180;5.646;2024-02-28T07:23:09;84.67;;;39.77;;
22248;SDS011;67538;52.180;5.646;2024-02-28T07:25:36;96.97;;;41.77;;
22248;SDS011;67538;52.180;5.646;2024-02-28T07:28:03;89.63;;;40.77;;
22248;SDS011;67538;52.180;5.646;2024-02-28T07:30:31;96.87;;;41.27;;
22248;SDS011;67538;52.180;5.646;2024-02-28T07:32:59;85.10;;;39.13;;
22248;SDS011;67538;52.180;5.646;2024-02-28T07:35:26;97.13;;;42.17;;
22248;SDS011;67538;52.180;5.646;2024-02-28T07:37:53;90.67;;;41.07;;
22248;SDS011;67538;52.180;5.646;2024-02-28T07:40:20;93.57;;;42.73;;
22248;SDS011;67538;52.180;5.646;2024-02-28T07:42:47;96.63;;;43.67;;
22248;SDS011;67538;52.180;5.646;2024-02-28T07:45:14;90.77;;;43.13;;
22248;SDS011;67538;52.180;5.646;2024-02-28T07:47:41;95.27;;;44.63;;
22248;SDS011;67538;52.180;5.646;2024-02-28T07:50:10;99.27;;;43.30;;
22248;SDS011;67538;52.180;5.646;2024-02-28T07:52:37;98.40;;;44.80;;
22248;SDS011;67538;52.180;5.646;2024-02-28T07:55:04;103.07;;;45.27;;
22248;SDS011;67538;52.180;5.646;2024-02-28T07:57:32;101.07;;;45.13;;
22248;SDS011;67538;52.180;5.646;2024-02-28T07:59:59;97.03;;;46.33;;
22248;SDS011;67538;52.180;5.646;2024-02-28T08:02:26;108.60;;;48.17;;
22248;SDS011;67538;52.180;5.646;2024-02-28T08:04:53;103.53;;;46.60;;
22248;SDS011;67538;52.180;5.646;2024-02-28T08:07:21;107.37;;;49.43;;
22248;SDS011;67538;52.180;5.646;2024-02-28T08:09:49;99.67;;;49.07;;
22248;SDS011;67538;52.180;5.646;2024-02-28T08:12:16;114.03;;;54.20;;
22248;SDS011;67538;52.180;5.646;2024-02-28T08:14:43;120.53;;;52.90;;
22248;SDS011;67538;52.180;5.646;2024-02-28T08:17:11;117.30;;;53.50;;
22248;SDS011;67538;52.180;5.646;2024-02-28T08:19:40;110.10;;;51.53;;
22248;SDS011;67538;52.180;5.646;2024-02-28T08:22:07;116.33;;;54.57;;
22248;SDS011;67538;52.180;5.646;2024-02-28T08:24:37;116.90;;;53.57;;
22248;SDS011;67538;52.180;5.646;2024-02-28T08:27:04;119.57;;;54.03;;
22248;SDS011;67538;52.180;5.646;2024-02-28T08:29:31;119.30;;;54.13;;
22248;SDS011;67538;52.180;5.646;2024-02-28T08:32:00;115.63;;;55.07;;
22248;SDS011;67538;52.180;5.646;2024-02-28T08:34:28;120.83;;;57.23;;
22248;SDS011;67538;52.180;5.646;2024-02-28T08:36:55;110.97;;;56.07;;
22248;SDS011;67538;52.180;5.646;2024-02-28T08:39:22;127.00;;;55.40;;
22248;SDS011;67538;52.180;5.646;2024-02-28T08:41:51;121.57;;;55.47;;
22248;SDS011;67538;52.180;5.646;2024-02-28T08:44:17;121.43;;;56.87;;
22248;SDS011;67538;52.180;5.646;2024-02-28T08:46:46;117.17;;;54.87;;
22248;SDS011;67538;52.180;5.646;2024-02-28T08:49:13;122.57;;;55.63;;
22248;SDS011;67538;52.180;5.646;2024-02-28T08:51:42;118.03;;;54.53;;
22248;SDS011;67538;52.180;5.646;2024-02-28T08:54:09;117.10;;;54.50;;
22248;SDS011;67538;52.180;5.646;2024-02-28T08:56:36;115.30;;;53.87;;
22248;SDS011;67538;52.180;5.646;2024-02-28T08:59:05;118.43;;;54.90;;
22248;SDS011;67538;52.180;5.646;2024-02-28T09:01:32;120.50;;;55.73;;
22248;SDS011;67538;52.180;5.646;2024-02-28T09:03:59;119.43;;;56.10;;
22248;SDS011;67538;52.180;5.646;2024-02-28T09:06:26;120.80;;;56.93;;
22248;SDS011;67538;52.180;5.646;2024-02-28T09:08:53;131.03;;;57.97;;
22248;SDS011;67538;52.180;5.646;2024-02-28T09:11:20;129.63;;;58.70;;
22248;SDS011;67538;52.180;5.646;2024-02-28T09:13:47;122.03;;;55.87;;
22248;SDS011;67538;52.180;5.646;2024-02-28T09:16:15;125.43;;;54.97;;
22248;SDS011;67538;52.180;5.646;2024-02-28T09:18:42;119.07;;;55.73;;
22248;SDS011;67538;52.180;5.646;2024-02-28T09:21:09;125.27;;;56.53;;
22248;SDS011;67538;52.180;5.646;2024-02-28T09:23:36;126.97;;;55.50;;
22248;SDS011;67538;52.180;5.646;2024-02-28T09:26:03;125.07;;;57.30;;
22248;SDS011;67538;52.180;5.646;2024-02-28T09:28:31;130.77;;;55.63;;
22248;SDS011;67538;52.180;5.646;2024-02-28T09:30:58;123.27;;;55.73;;
22248;SDS011;67538;52.180;5.646;2024-02-28T09:33:26;134.80;;;59.40;;
22248;SDS011;67538;52.180;5.646;2024-02-28T09:35:53;127.13;;;57.53;;
22248;SDS011;67538;52.180;5.646;2024-02-28T09:38:20;137.07;;;57.70;;
22248;SDS011;67538;52.180;5.646;2024-02-28T09:40:48;121.43;;;56.27;;
22248;SDS011;67538;52.180;5.646;2024-02-28T09:43:17;118.03;;;56.27;;
22248;SDS011;67538;52.180;5.646;2024-02-28T09:45:50;133.03;;;57.43;;
22248;SDS011;67538;52.180;5.646;2024-02-28T09:48:17;124.00;;;56.87;;
22248;SDS011;67538;52.180;5.646;2024-02-28T09:50:46;127.10;;;56.73;;
22248;SDS011;67538;52.180;5.646;2024-02-28T09:53:14;123.30;;;57.00;;
22248;SDS011;67538;52.180;5.646;2024-02-28T09:55:41;129.17;;;57.63;;
22248;SDS011;67538;52.180;5.646;2024-02-28T09:58:08;128.67;;;57.47;;
22248;SDS011;67538;52.180;5.646;2024-02-28T10:00:36;131.83;;;56.33;;
22248;SDS011;67538;52.180;5.646;2024-02-28T10:03:04;131.63;;;57.00;;
22248;SDS011;67538;52.180;5.646;2024-02-28T10:05:32;133.53;;;58.33;;
22248;SDS011;67538;52.180;5.646;2024-02-28T10:08:01;127.07;;;56.50;;
22248;SDS011;67538;52.180;5.646;2024-02-28T10:10:29;134.17;;;57.90;;
22248;SDS011;67538;52.180;5.646;2024-02-28T10:12:56;124.47;;;57.40;;
22248;SDS011;67538;52.180;5.646;2024-02-28T10:15:26;129.80;;;57.23;;
22248;SDS011;67538;52.180;5.646;2024-02-28T10:17:53;131.77;;;57.50;;
22248;SDS011;67538;52.180;5.646;2024-02-28T10:20:20;143.97;;;60.63;;
22248;SDS011;67538;52.180;5.646;2024-02-28T10:22:47;139.30;;;59.17;;
22248;SDS011;67538;52.180;5.646;2024-02-28T10:25:15;145.67;;;61.67;;
22248;SDS011;67538;52.180;5.646;2024-02-28T10:27:46;142.57;;;60.17;;
22248;SDS011;67538;52.180;5.646;2024-02-28T10:30:13;138.10;;;58.03;;
22248;SDS011;67538;52.180;5.646;2024-02-28T10:32:47;148.87;;;60.33;;
22248;SDS011;67538;52.180;5.646;2024-02-28T10:35:15;146.60;;;59.83;;
22248;SDS011;67538;52.180;5.646;2024-02-28T10:37:44;150.63;;;61.57;;
22248;SDS011;67538;52.180;5.646;2024-02-28T10:40:13;150.57;;;61.83;;
22248;SDS011;67538;52.180;5.646;2024-02-28T10:42:43;146.63;;;59.33;;
22248;SDS011;67538;52.180;5.646;2024-02-28T10:45:10;158.00;;;63.60;;
22248;SDS011;67538;52.180;5.646;2024-02-28T10:47:37;151.80;;;62.63;;
22248;SDS011;67538;52.180;5.646;2024-02-28T10:50:05;143.50;;;61.10;;
22248;SDS011;67538;52.180;5.646;2024-02-28T10:52:33;145.07;;;60.03;;
22248;SDS011;67538;52.180;5.646;2024-02-28T10:55:05;149.30;;;61.30;;
22248;SDS011;67538;52.180;5.646;2024-02-28T10:57:36;144.37;;;60.73;;
22248;SDS011;67538;52.180;5.646;2024-02-28T11:00:04;138.60;;;60.20;;
22248;SDS011;67538;52.180;5.646;2024-02-28T11:02:33;145.63;;;59.50;;
22248;SDS011;67538;52.180;5.646;2024-02-28T11:05:01;141.80;;;58.73;;
22248;SDS011;67538;52.180;5.646;2024-02-28T11:07:30;137.83;;;58.63;;
22248;SDS011;67538;52.180;5.646;2024-02-28T11:09:57;138.63;;;57.60;;
22248;SDS011;67538;52.180;5.646;2024-02-28T11:12:24;147.63;;;59.90;;
22248;SDS011;67538;52.180;5.646;2024-02-28T11:14:58;143.93;;;58.67;;
22248;SDS011;67538;52.180;5.646;2024-02-28T11:17:27;129.17;;;56.90;;
22248;SDS011;67538;52.180;5.646;2024-02-28T11:19:54;139.07;;;56.97;;
22248;SDS011;67538;52.180;5.646;2024-02-28T11:22:22;132.37;;;58.53;;
22248;SDS011;67538;52.180;5.646;2024-02-28T11:24:49;133.60;;;59.27;;
22248;SDS011;67538;52.180;5.646;2024-02-28T11:27:20;124.47;;;56.13;;
22248;SDS011;67538;52.180;5.646;2024-02-28T11:29:47;132.77;;;57.90;;
22248;SDS011;67538;52.180;5.646;2024-02-28T11:32:16;127.80;;;58.17;;
22248;SDS011;67538;52.180;5.646;2024-02-28T11:34:43;115.10;;;52.17;;
22248;SDS011;67538;52.180;5.646;2024-02-28T11:37:11;125.50;;;55.93;;
22248;SDS011;67538;52.180;5.646;2024-02-28T11:39:38;113.70;;;54.37;;
22248;SDS011;67538;52.180;5.646;2024-02-28T11:42:11;120.53;;;54.97;;
22248;SDS011;67538;52.180;5.646;2024-02-28T11:44:39;105.37;;;50.50;;
22248;SDS011;67538;52.180;5.646;2024-02-28T11:47:08;105.97;;;50.50;;
22248;SDS011;67538;52.180;5.646;2024-02-28T11:49:37;103.10;;;46.97;;
22248;SDS011;67538;52.180;5.646;2024-02-28T11:52:04;91.23;;;46.87;;
22248;SDS011;67538;52.180;5.646;2024-02-28T11:54:31;89.53;;;46.40;;
22248;SDS011;67538;52.180;5.646;2024-02-28T11:56:58;88.10;;;45.00;;
22248;SDS011;67538;52.180;5.646;2024-02-28T11:59:25;85.17;;;41.73;;
22248;SDS011;67538;52.180;5.646;2024-02-28T12:01:52;77.40;;;42.03;;
22248;SDS011;67538;52.180;5.646;2024-02-28T12:04:20;71.37;;;39.30;;
22248;SDS011;67538;52.180;5.646;2024-02-28T12:06:52;72.90;;;38.10;;
22248;SDS011;67538;52.180;5.646;2024-02-28T12:09:19;71.37;;;37.57;;
22248;SDS011;67538;52.180;5.646;2024-02-28T12:11:46;73.60;;;36.40;;
22248;SDS011;67538;52.180;5.646;2024-02-28T12:14:13;65.17;;;34.33;;
22248;SDS011;67538;52.180;5.646;2024-02-28T12:16:40;70.23;;;35.43;;
22248;SDS011;67538;52.180;5.646;2024-02-28T12:19:09;69.80;;;33.47;;
22248;SDS011;67538;52.180;5.646;2024-02-28T12:21:37;73.97;;;35.10;;
22248;SDS011;67538;52.180;5.646;2024-02-28T12:24:06;61.87;;;33.20;;
22248;SDS011;67538;52.180;5.646;2024-02-28T12:26:35;62.23;;;31.30;;
22248;SDS011;67538;52.180;5.646;2024-02-28T12:29:02;61.37;;;32.27;;
22248;SDS011;67538;52.180;5.646;2024-02-28T12:31:29;64.53;;;32.27;;
22248;SDS011;67538;52.180;5.646;2024-02-28T12:33:56;62.07;;;34.47;;
22248;SDS011;67538;52.180;5.646;2024-02-28T12:36:23;63.60;;;34.87;;
22248;SDS011;67538;52.180;5.646;2024-02-28T12:38:51;61.43;;;34.67;;
22248;SDS011;67538;52.180;5.646;2024-02-28T12:41:20;67.97;;;35.37;;
22248;SDS011;67538;52.180;5.646;2024-02-28T12:43:47;74.30;;;35.23;;
22248;SDS011;67538;52.180;5.646;2024-02-28T12:46:15;69.47;;;35.67;;
22248;SDS011;67538;52.180;5.646;2024-02-28T12:48:42;65.10;;;33.53;;
22248;SDS011;67538;52.180;5.646;2024-02-28T12:51:13;65.23;;;33.43;;
22248;SDS011;67538;52.180;5.646;2024-02-28T12:53:47;66.17;;;34.17;;
22248;SDS011;67538;52.180;5.646;2024-02-28T12:56:14;64.27;;;34.30;;
22248;SDS011;67538;52.180;5.646;2024-02-28T12:58:42;62.00;;;32.70;;
22248;SDS011;67538;52.180;5.646;2024-02-28T13:01:09;64.87;;;32.13;;
22248;SDS011;67538;52.180;5.646;2024-02-28T13:03:38;66.87;;;32.90;;
22248;SDS011;67538;52.180;5.646;2024-02-28T13:06:05;70.03;;;34.10;;
22248;SDS011;67538;52.180;5.646;2024-02-28T13:08:32;61.57;;;31.60;;
22248;SDS011;67538;52.180;5.646;2024-02-28T13:10:59;62.80;;;33.20;;
22248;SDS011;67538;52.180;5.646;2024-02-28T13:13:26;64.80;;;33.47;;
22248;SDS011;67538;52.180;5.646;2024-02-28T13:15:54;68.23;;;33.20;;
22248;SDS011;67538;52.180;5.646;2024-02-28T13:18:21;65.83;;;32.97;;
22248;SDS011;67538;52.180;5.646;2024-02-28T13:20:48;65.57;;;31.73;;
22248;SDS011;67538;52.180;5.646;2024-02-28T13:23:15;71.70;;;33.27;;
22248;SDS011;67538;52.180;5.646;2024-02-28T13:25:42;67.40;;;34.77;;
22248;SDS011;67538;52.180;5.646;2024-02-28T13:28:09;68.83;;;32.03;;
22248;SDS011;67538;52.180;5.646;2024-02-28T13:30:36;70.17;;;36.40;;
22248;SDS011;67538;52.180;5.646;2024-02-28T13:33:05;71.53;;;34.07;;
22248;SDS011;67538;52.180;5.646;2024-02-28T13:35:33;65.97;;;34.47;;
22248;SDS011;67538;52.180;5.646;2024-02-28T13:38:00;64.00;;;33.67;;
22248;SDS011;67538;52.180;5.646;2024-02-28T13:40:27;71.27;;;35.30;;
22248;SDS011;67538;52.180;5.646;2024-02-28T13:42:54;68.60;;;34.20;;
22248;SDS011;67538;52.180;5.646;2024-02-28T13:45:21;72.43;;;34.60;;
22248;SDS011;67538;52.180;5.646;2024-02-28T13:47:48;69.17;;;35.20;;
22248;SDS011;67538;52.180;5.646;2024-02-28T13:50:16;71.87;;;35.23;;
22248;SDS011;67538;52.180;5.646;2024-02-28T13:52:43;66.67;;;33.97;;
22248;SDS011;67538;52.180;5.646;2024-02-28T13:55:10;62.07;;;34.43;;
22248;SDS011;67538;52.180;5.646;2024-02-28T13:57:37;66.43;;;34.67;;
22248;SDS011;67538;52.180;5.646;2024-02-28T14:00:05;67.53;;;34.63;;
22248;SDS011;67538;52.180;5.646;2024-02-28T14:02:36;65.07;;;34.27;;
22248;SDS011;67538;52.180;5.646;2024-02-28T14:05:03;67.47;;;34.17;;
22248;SDS011;67538;52.180;5.646;2024-02-28T14:07:34;60.53;;;32.40;;
22248;SDS011;67538;52.180;5.646;2024-02-28T14:10:02;56.50;;;30.30;;
22248;SDS011;67538;52.180;5.646;2024-02-28T14:12:29;53.87;;;30.03;;
22248;SDS011;67538;52.180;5.646;2024-02-28T14:14:57;57.87;;;30.07;;